sensor_id;sensor_type;location;lat;lon;timestamp;temperature;humidity
13711;DHT22;6927;51.256;9.410;2022-09-09T00:04:21;13.20;99.90
13711;DHT22;6927;51.256;9.410;2022-09-09T00:07:10;13.20;99.90
13711;DHT22;6927;51.256;9.410;2022-09-09T00:15:40;13.20;99.90
13711;DHT22;6927;51.256;9.410;2022-09-09T00:21:59;13.20;99.90
13711;DHT22;6927;51.256;9.410;2022-09-09T00:23:55;13.10;99.90
13711;DHT22;6927;51.256;9.410;2022-09-09T00:26:32;13.10;99.90
13711;DHT22;6927;51.256;9.410;2022-09-09T00:29:14;13.10;99.90
13711;DHT22;6927;51.256;9.410;2022-09-09T00:31:49;13.10;99.90
13711;DHT22;6927;51.256;9.410;2022-09-09T00:34:22;13.00;99.90
13711;DHT22;6927;51.256;9.410;2022-09-09T00:36:50;13.00;99.90
13711;DHT22;6927;51.256;9.410;2022-09-09T00:39:44;13.00;99.90
13711;DHT22;6927;51.256;9.410;2022-09-09T00:53:38;13.00;99.90
13711;DHT22;6927;51.256;9.410;2022-09-09T00:58:34;13.00;99.90
13711;DHT22;6927;51.256;9.410;2022-09-09T01:01:25;13.00;99.90
13711;DHT22;6927;51.256;9.410;2022-09-09T01:03:55;13.00;99.90
13711;DHT22;6927;51.256;9.410;2022-09-09T01:06:34;13.10;99.90
13711;DHT22;6927;51.256;9.410;2022-09-09T01:14:38;13.00;99.90
13711;DHT22;6927;51.256;9.410;2022-09-09T01:17:19;13.00;99.90
13711;DHT22;6927;51.256;9.410;2022-09-09T01:20:10;13.00;99.90
13711;DHT22;6927;51.256;9.410;2022-09-09T01:28:55;13.10;99.90
13711;DHT22;6927;51.256;9.410;2022-09-09T01:31:40;13.00;99.90
13711;DHT22;6927;51.256;9.410;2022-09-09T01:34:19;13.10;99.90
13711;DHT22;6927;51.256;9.410;2022-09-09T01:37:03;13.10;99.90
13711;DHT22;6927;51.256;9.410;2022-09-09T01:39:36;13.10;99.90
13711;DHT22;6927;51.256;9.410;2022-09-09T01:42:03;13.10;99.90
13711;DHT22;6927;51.256;9.410;2022-09-09T01:44:35;13.20;99.90
13711;DHT22;6927;51.256;9.410;2022-09-09T01:47:04;13.20;99.90
13711;DHT22;6927;51.256;9.410;2022-09-09T01:49:33;13.20;99.90
13711;DHT22;6927;51.256;9.410;2022-09-09T01:51:59;13.30;99.90
13711;DHT22;6927;51.256;9.410;2022-09-09T01:54:30;13.30;99.90
13711;DHT22;6927;51.256;9.410;2022-09-09T02:00:13;13.40;99.90
13711;DHT22;6927;51.256;9.410;2022-09-09T02:05:57;13.40;99.90
13711;DHT22;6927;51.256;9.410;2022-09-09T02:08:40;13.40;99.90
13711;DHT22;6927;51.256;9.410;2022-09-09T02:11:16;13.40;99.90
13711;DHT22;6927;51.256;9.410;2022-09-09T02:13:44;13.30;99.90
13711;DHT22;6927;51.256;9.410;2022-09-09T02:19:14;13.30;99.90
13711;DHT22;6927;51.256;9.410;2022-09-09T02:21:43;13.30;99.90
13711;DHT22;6927;51.256;9.410;2022-09-09T02:24:12;13.30;99.90
13711;DHT22;6927;51.256;9.410;2022-09-09T02:26:44;13.30;99.90
13711;DHT22;6927;51.256;9.410;2022-09-09T02:29:41;13.30;99.90
13711;DHT22;6927;51.256;9.410;2022-09-09T02:32:21;13.30;99.90
13711;DHT22;6927;51.256;9.410;2022-09-09T02:34:55;13.30;99.90
13711;DHT22;6927;51.256;9.410;2022-09-09T02:37:28;13.30;99.90
13711;DHT22;6927;51.256;9.410;2022-09-09T02:39:57;13.40;99.90
13711;DHT22;6927;51.256;9.410;2022-09-09T02:42:22;13.40;99.90
13711;DHT22;6927;51.256;9.410;2022-09-09T02:44:49;13.40;99.90
13711;DHT22;6927;51.256;9.410;2022-09-09T02:55:26;13.50;99.90
13711;DHT22;6927;51.256;9.410;2022-09-09T02:57:55;13.50;99.90
13711;DHT22;6927;51.256;9.410;2022-09-09T03:00:28;13.50;99.90
13711;DHT22;6927;51.256;9.410;2022-09-09T03:02:54;13.60;99.90
13711;DHT22;6927;51.256;9.410;2022-09-09T03:05:23;13.60;99.90
13711;DHT22;6927;51.256;9.410;2022-09-09T03:07:49;13.60;99.90
13711;DHT22;6927;51.256;9.410;2022-09-09T03:10:16;13.60;99.90
13711;DHT22;6927;51.256;9.410;2022-09-09T03:12:47;13.50;99.90
13711;DHT22;6927;51.256;9.410;2022-09-09T03:15:13;13.50;99.90
13711;DHT22;6927;51.256;9.410;2022-09-09T03:17:40;13.60;99.90
13711;DHT22;6927;51.256;9.410;2022-09-09T03:20:06;13.60;99.90
13711;DHT22;6927;51.256;9.410;2022-09-09T03:22:33;13.60;99.90
13711;DHT22;6927;51.256;9.410;2022-09-09T03:25:01;13.60;99.90
13711;DHT22;6927;51.256;9.410;2022-09-09T03:27:28;13.60;99.90
13711;DHT22;6927;51.256;9.410;2022-09-09T03:29:54;13.60;99.90
13711;DHT22;6927;51.256;9.410;2022-09-09T03:32:24;13.60;99.90
13711;DHT22;6927;51.256;9.410;2022-09-09T03:34:51;13.60;99.90
13711;DHT22;6927;51.256;9.410;2022-09-09T03:37:20;13.60;99.90
13711;DHT22;6927;51.256;9.410;2022-09-09T03:39:46;13.70;99.90
13711;DHT22;6927;51.256;9.410;2022-09-09T03:42:15;13.70;99.90
13711;DHT22;6927;51.256;9.410;2022-09-09T03:44:44;13.70;99.90
13711;DHT22;6927;51.256;9.410;2022-09-09T03:47:18;13.70;99.90
13711;DHT22;6927;51.256;9.410;2022-09-09T03:49:44;13.70;99.90
13711;DHT22;6927;51.256;9.410;2022-09-09T03:52:12;13.70;99.90
13711;DHT22;6927;51.256;9.410;2022-09-09T03:54:38;13.70;99.90
13711;DHT22;6927;51.256;9.410;2022-09-09T03:57:07;13.80;99.90
13711;DHT22;6927;51.256;9.410;2022-09-09T03:59:33;13.80;99.90
13711;DHT22;6927;51.256;9.410;2022-09-09T04:02:02;13.80;99.90
13711;DHT22;6927;51.256;9.410;2022-09-09T04:04:28;13.80;99.90
13711;DHT22;6927;51.256;9.410;2022-09-09T04:06:54;13.80;99.90
13711;DHT22;6927;51.256;9.410;2022-09-09T04:09:22;13.90;99.90
13711;DHT22;6927;51.256;9.410;2022-09-09T04:11:50;13.80;99.90
13711;DHT22;6927;51.256;9.410;2022-09-09T04:14:19;13.80;99.90
13711;DHT22;6927;51.256;9.410;2022-09-09T04:16:45;13.80;99.90
13711;DHT22;6927;51.256;9.410;2022-09-09T04:19:12;13.80;99.90
13711;DHT22;6927;51.256;9.410;2022-09-09T04:21:39;13.80;99.90
13711;DHT22;6927;51.256;9.410;2022-09-09T04:24:06;13.80;99.90
13711;DHT22;6927;51.256;9.410;2022-09-09T04:26:32;13.80;99.90
13711;DHT22;6927;51.256;9.410;2022-09-09T04:29:01;13.80;99.90
13711;DHT22;6927;51.256;9.410;2022-09-09T04:31:35;13.80;99.90
13711;DHT22;6927;51.256;9.410;2022-09-09T04:34:54;13.80;99.90
13711;DHT22;6927;51.256;9.410;2022-09-09T04:44:29;13.70;99.90
13711;DHT22;6927;51.256;9.410;2022-09-09T04:47:32;13.70;99.90
13711;DHT22;6927;51.256;9.410;2022-09-09T04:53:07;13.70;99.90
13711;DHT22;6927;51.256;9.410;2022-09-09T04:55:34;13.70;99.90
13711;DHT22;6927;51.256;9.410;2022-09-09T04:58:04;13.70;99.90
13711;DHT22;6927;51.256;9.410;2022-09-09T05:00:37;13.70;99.90
13711;DHT22;6927;51.256;9.410;2022-09-09T05:03:06;13.70;99.90
13711;DHT22;6927;51.256;9.410;2022-09-09T05:05:33;13.70;99.90
13711;DHT22;6927;51.256;9.410;2022-09-09T05:08:03;13.70;99.90
13711;DHT22;6927;51.256;9.410;2022-09-09T05:10:29;13.70;99.90
13711;DHT22;6927;51.256;9.410;2022-09-09T05:12:54;13.70;99.90
13711;DHT22;6927;51.256;9.410;2022-09-09T05:15:20;13.70;99.90
13711;DHT22;6927;51.256;9.410;2022-09-09T05:17:51;13.80;99.90
13711;DHT22;6927;51.256;9.410;2022-09-09T05:20:19;13.80;99.90
13711;DHT22;6927;51.256;9.410;2022-09-09T05:22:45;13.80;99.90
13711;DHT22;6927;51.256;9.410;2022-09-09T05:25:10;13.90;99.90
13711;DHT22;6927;51.256;9.410;2022-09-09T05:27:36;13.90;99.90
13711;DHT22;6927;51.256;9.410;2022-09-09T05:30:03;14.00;99.90
13711;DHT22;6927;51.256;9.410;2022-09-09T05:32:30;13.90;99.90
13711;DHT22;6927;51.256;9.410;2022-09-09T05:34:58;14.00;99.90
13711;DHT22;6927;51.256;9.410;2022-09-09T05:37:30;14.00;99.90
13711;DHT22;6927;51.256;9.410;2022-09-09T05:40:05;14.00;99.90
13711;DHT22;6927;51.256;9.410;2022-09-09T05:42:31;14.00;99.90
13711;DHT22;6927;51.256;9.410;2022-09-09T05:44:57;14.00;99.90
13711;DHT22;6927;51.256;9.410;2022-09-09T05:47:23;14.00;99.90
13711;DHT22;6927;51.256;9.410;2022-09-09T05:49:48;13.90;99.90
13711;DHT22;6927;51.256;9.410;2022-09-09T05:52:14;14.00;99.90
13711;DHT22;6927;51.256;9.410;2022-09-09T05:54:40;14.00;99.90
13711;DHT22;6927;51.256;9.410;2022-09-09T05:57:06;14.00;99.90
13711;DHT22;6927;51.256;9.410;2022-09-09T05:59:32;14.10;99.90
13711;DHT22;6927;51.256;9.410;2022-09-09T06:01:57;14.20;99.90
13711;DHT22;6927;51.256;9.410;2022-09-09T06:04:23;14.40;99.90
13711;DHT22;6927;51.256;9.410;2022-09-09T06:06:49;14.60;99.90
13711;DHT22;6927;51.256;9.410;2022-09-09T06:09:15;14.70;99.90
13711;DHT22;6927;51.256;9.410;2022-09-09T06:11:41;14.90;99.90
13711;DHT22;6927;51.256;9.410;2022-09-09T06:14:07;15.10;99.90
13711;DHT22;6927;51.256;9.410;2022-09-09T06:16:34;15.40;99.90
13711;DHT22;6927;51.256;9.410;2022-09-09T06:19:00;15.70;99.90
13711;DHT22;6927;51.256;9.410;2022-09-09T06:21:31;16.10;99.90
13711;DHT22;6927;51.256;9.410;2022-09-09T06:23:58;16.50;99.90
13711;DHT22;6927;51.256;9.410;2022-09-09T06:26:26;16.90;99.90
13711;DHT22;6927;51.256;9.410;2022-09-09T06:28:53;17.50;99.90
13711;DHT22;6927;51.256;9.410;2022-09-09T06:31:22;18.30;99.90
13711;DHT22;6927;51.256;9.410;2022-09-09T06:33:49;19.20;99.90
13711;DHT22;6927;51.256;9.410;2022-09-09T06:36:27;19.90;99.90
13711;DHT22;6927;51.256;9.410;2022-09-09T06:38:53;20.20;99.90
13711;DHT22;6927;51.256;9.410;2022-09-09T06:41:20;20.00;99.90
13711;DHT22;6927;51.256;9.410;2022-09-09T06:43:46;19.60;99.90
13711;DHT22;6927;51.256;9.410;2022-09-09T06:46:17;19.20;99.90
13711;DHT22;6927;51.256;9.410;2022-09-09T06:48:44;19.10;99.90
13711;DHT22;6927;51.256;9.410;2022-09-09T06:51:21;18.80;99.90
13711;DHT22;6927;51.256;9.410;2022-09-09T06:53:50;18.60;99.90
13711;DHT22;6927;51.256;9.410;2022-09-09T06:56:30;18.80;99.90
13711;DHT22;6927;51.256;9.410;2022-09-09T06:58:58;18.70;99.90
13711;DHT22;6927;51.256;9.410;2022-09-09T07:01:26;18.60;99.90
13711;DHT22;6927;51.256;9.410;2022-09-09T07:03:54;18.20;99.90
13711;DHT22;6927;51.256;9.410;2022-09-09T07:06:27;17.90;99.90
13711;DHT22;6927;51.256;9.410;2022-09-09T07:08:55;17.60;99.90
13711;DHT22;6927;51.256;9.410;2022-09-09T07:11:23;17.50;99.90
13711;DHT22;6927;51.256;9.410;2022-09-09T07:13:49;17.50;99.90
13711;DHT22;6927;51.256;9.410;2022-09-09T07:16:17;17.50;99.90
13711;DHT22;6927;51.256;9.410;2022-09-09T07:18:43;17.30;99.90
13711;DHT22;6927;51.256;9.410;2022-09-09T07:21:13;17.10;99.90
13711;DHT22;6927;51.256;9.410;2022-09-09T07:23:39;17.00;99.90
13711;DHT22;6927;51.256;9.410;2022-09-09T07:26:09;16.80;99.90
13711;DHT22;6927;51.256;9.410;2022-09-09T07:28:36;16.70;99.90
13711;DHT22;6927;51.256;9.410;2022-09-09T07:31:02;16.80;99.90
13711;DHT22;6927;51.256;9.410;2022-09-09T07:33:29;16.80;99.90
13711;DHT22;6927;51.256;9.410;2022-09-09T07:38:36;16.90;99.90
13711;DHT22;6927;51.256;9.410;2022-09-09T07:41:04;16.90;99.90
13711;DHT22;6927;51.256;9.410;2022-09-09T07:43:30;16.80;99.90
13711;DHT22;6927;51.256;9.410;2022-09-09T07:45:59;16.80;99.90
13711;DHT22;6927;51.256;9.410;2022-09-09T07:48:27;17.00;99.90
13711;DHT22;6927;51.256;9.410;2022-09-09T07:51:01;17.00;99.90
13711;DHT22;6927;51.256;9.410;2022-09-09T07:53:27;17.10;99.90
13711;DHT22;6927;51.256;9.410;2022-09-09T07:55:52;17.00;99.90
13711;DHT22;6927;51.256;9.410;2022-09-09T07:58:20;16.90;99.90
13711;DHT22;6927;51.256;9.410;2022-09-09T08:00:45;16.80;99.90
13711;DHT22;6927;51.256;9.410;2022-09-09T08:03:11;16.90;99.90
13711;DHT22;6927;51.256;9.410;2022-09-09T08:05:37;17.00;99.90
13711;DHT22;6927;51.256;9.410;2022-09-09T08:08:04;17.40;99.90
13711;DHT22;6927;51.256;9.410;2022-09-09T08:10:30;17.80;99.90
13711;DHT22;6927;51.256;9.410;2022-09-09T08:12:55;17.90;99.90
13711;DHT22;6927;51.256;9.410;2022-09-09T08:15:21;18.00;99.90
13711;DHT22;6927;51.256;9.410;2022-09-09T08:17:46;17.90;99.90
13711;DHT22;6927;51.256;9.410;2022-09-09T08:20:12;17.60;99.90
13711;DHT22;6927;51.256;9.410;2022-09-09T08:22:38;17.40;99.90
13711;DHT22;6927;51.256;9.410;2022-09-09T08:25:04;17.50;99.90
13711;DHT22;6927;51.256;9.410;2022-09-09T08:27:31;17.60;99.90
13711;DHT22;6927;51.256;9.410;2022-09-09T08:29:58;18.60;99.90
13711;DHT22;6927;51.256;9.410;2022-09-09T08:32:24;19.80;99.90
13711;DHT22;6927;51.256;9.410;2022-09-09T08:34:49;21.20;99.90
13711;DHT22;6927;51.256;9.410;2022-09-09T08:37:16;22.60;99.90
13711;DHT22;6927;51.256;9.410;2022-09-09T08:39:42;23.30;99.90
13711;DHT22;6927;51.256;9.410;2022-09-09T08:42:51;23.20;99.90
13711;DHT22;6927;51.256;9.410;2022-09-09T08:45:35;22.30;99.90
13711;DHT22;6927;51.256;9.410;2022-09-09T08:50:52;21.20;99.90
13711;DHT22;6927;51.256;9.410;2022-09-09T08:53:32;21.00;99.90
13711;DHT22;6927;51.256;9.410;2022-09-09T08:56:04;20.70;99.90
13711;DHT22;6927;51.256;9.410;2022-09-09T08:58:34;20.20;99.90
13711;DHT22;6927;51.256;9.410;2022-09-09T09:04:13;20.60;99.90
13711;DHT22;6927;51.256;9.410;2022-09-09T09:07:11;22.00;99.90
13711;DHT22;6927;51.256;9.410;2022-09-09T09:09:56;23.50;99.90
13711;DHT22;6927;51.256;9.410;2022-09-09T09:12:28;25.00;99.90
13711;DHT22;6927;51.256;9.410;2022-09-09T09:14:55;25.50;99.90
13711;DHT22;6927;51.256;9.410;2022-09-09T09:17:26;25.20;99.90
13711;DHT22;6927;51.256;9.410;2022-09-09T09:19:53;24.80;99.90
13711;DHT22;6927;51.256;9.410;2022-09-09T09:22:30;25.20;99.90
13711;DHT22;6927;51.256;9.410;2022-09-09T09:25:23;24.50;99.90
13711;DHT22;6927;51.256;9.410;2022-09-09T09:28:02;23.60;99.90
13711;DHT22;6927;51.256;9.410;2022-09-09T09:30:38;22.60;99.90
13711;DHT22;6927;51.256;9.410;2022-09-09T09:33:38;22.10;99.90
13711;DHT22;6927;51.256;9.410;2022-09-09T09:36:09;21.90;99.90
13711;DHT22;6927;51.256;9.410;2022-09-09T09:38:36;21.70;99.90
13711;DHT22;6927;51.256;9.410;2022-09-09T09:41:03;21.30;99.90
13711;DHT22;6927;51.256;9.410;2022-09-09T09:43:34;21.30;99.90
13711;DHT22;6927;51.256;9.410;2022-09-09T09:46:03;22.30;99.90
13711;DHT22;6927;51.256;9.410;2022-09-09T09:48:29;23.00;99.90
13711;DHT22;6927;51.256;9.410;2022-09-09T09:51:01;23.00;99.90
13711;DHT22;6927;51.256;9.410;2022-09-09T09:53:33;22.80;99.90
13711;DHT22;6927;51.256;9.410;2022-09-09T09:56:01;23.00;99.90
13711;DHT22;6927;51.256;9.410;2022-09-09T09:58:30;23.40;99.90
13711;DHT22;6927;51.256;9.410;2022-09-09T10:00:58;23.10;99.90
13711;DHT22;6927;51.256;9.410;2022-09-09T10:03:33;22.30;99.90
13711;DHT22;6927;51.256;9.410;2022-09-09T10:06:04;22.60;99.90
13711;DHT22;6927;51.256;9.410;2022-09-09T10:08:43;23.70;99.90
13711;DHT22;6927;51.256;9.410;2022-09-09T10:14:03;23.90;99.90
13711;DHT22;6927;51.256;9.410;2022-09-09T10:19:13;23.00;99.90
13711;DHT22;6927;51.256;9.410;2022-09-09T10:30:19;21.00;99.90
13711;DHT22;6927;51.256;9.410;2022-09-09T10:32:48;21.10;99.90
13711;DHT22;6927;51.256;9.410;2022-09-09T10:35:26;21.80;99.90
13711;DHT22;6927;51.256;9.410;2022-09-09T10:38:15;21.80;99.90
13711;DHT22;6927;51.256;9.410;2022-09-09T10:43:40;21.50;99.90
13711;DHT22;6927;51.256;9.410;2022-09-09T10:49:16;21.20;99.90
13711;DHT22;6927;51.256;9.410;2022-09-09T10:57:24;21.10;99.90
13711;DHT22;6927;51.256;9.410;2022-09-09T10:59:54;21.10;99.90
13711;DHT22;6927;51.256;9.410;2022-09-09T11:02:28;21.20;99.90
13711;DHT22;6927;51.256;9.410;2022-09-09T11:05:17;21.30;99.90
13711;DHT22;6927;51.256;9.410;2022-09-09T11:07:59;21.40;99.90
13711;DHT22;6927;51.256;9.410;2022-09-09T11:10:49;21.10;99.90
13711;DHT22;6927;51.256;9.410;2022-09-09T11:16:09;20.90;99.90
13711;DHT22;6927;51.256;9.410;2022-09-09T11:18:40;20.90;99.90
13711;DHT22;6927;51.256;9.410;2022-09-09T11:21:14;21.00;99.90
13711;DHT22;6927;51.256;9.410;2022-09-09T11:23:47;21.20;99.90
13711;DHT22;6927;51.256;9.410;2022-09-09T11:26:28;21.40;99.90
13711;DHT22;6927;51.256;9.410;2022-09-09T11:40:20;20.70;99.90
13711;DHT22;6927;51.256;9.410;2022-09-09T11:42:48;20.50;99.90
13711;DHT22;6927;51.256;9.410;2022-09-09T11:45:25;20.30;99.90
13711;DHT22;6927;51.256;9.410;2022-09-09T11:48:22;20.10;99.90
13711;DHT22;6927;51.256;9.410;2022-09-09T11:51:05;20.00;99.90
13711;DHT22;6927;51.256;9.410;2022-09-09T11:53:33;20.90;99.90
13711;DHT22;6927;51.256;9.410;2022-09-09T11:56:09;22.20;99.90
13711;DHT22;6927;51.256;9.410;2022-09-09T11:58:43;23.20;99.90
13711;DHT22;6927;51.256;9.410;2022-09-09T12:01:14;23.60;99.90
13711;DHT22;6927;51.256;9.410;2022-09-09T12:03:52;23.80;99.90
13711;DHT22;6927;51.256;9.410;2022-09-09T12:06:28;22.80;99.90
13711;DHT22;6927;51.256;9.410;2022-09-09T12:09:27;22.10;99.90
13711;DHT22;6927;51.256;9.410;2022-09-09T12:11:50;21.40;99.90
13711;DHT22;6927;51.256;9.410;2022-09-09T12:17:24;20.50;99.90
13711;DHT22;6927;51.256;9.410;2022-09-09T12:23:05;20.20;99.90
13711;DHT22;6927;51.256;9.410;2022-09-09T12:25:54;20.20;99.90
13711;DHT22;6927;51.256;9.410;2022-09-09T12:33:43;19.50;99.90
13711;DHT22;6927;51.256;9.410;2022-09-09T12:36:16;19.40;99.90
13711;DHT22;6927;51.256;9.410;2022-09-09T12:38:44;19.30;99.90
13711;DHT22;6927;51.256;9.410;2022-09-09T12:41:27;19.20;99.90
13711;DHT22;6927;51.256;9.410;2022-09-09T12:44:10;19.10;99.90
13711;DHT22;6927;51.256;9.410;2022-09-09T12:46:43;19.00;99.90
13711;DHT22;6927;51.256;9.410;2022-09-09T12:49:31;18.90;99.90
13711;DHT22;6927;51.256;9.410;2022-09-09T12:52:02;18.90;99.90
13711;DHT22;6927;51.256;9.410;2022-09-09T12:54:33;19.00;99.90
13711;DHT22;6927;51.256;9.410;2022-09-09T12:57:12;19.30;99.90
13711;DHT22;6927;51.256;9.410;2022-09-09T12:59:41;19.70;99.90
13711;DHT22;6927;51.256;9.410;2022-09-09T13:02:22;20.20;99.90
13711;DHT22;6927;51.256;9.410;2022-09-09T13:04:48;20.60;99.90
13711;DHT22;6927;51.256;9.410;2022-09-09T13:07:16;20.80;99.90
13711;DHT22;6927;51.256;9.410;2022-09-09T13:09:44;20.80;99.90
13711;DHT22;6927;51.256;9.410;2022-09-09T13:12:30;21.00;99.90
13711;DHT22;6927;51.256;9.410;2022-09-09T13:15:05;20.70;99.90
13711;DHT22;6927;51.256;9.410;2022-09-09T13:18:06;20.90;99.90
13711;DHT22;6927;51.256;9.410;2022-09-09T13:20:46;21.00;99.90
13711;DHT22;6927;51.256;9.410;2022-09-09T13:23:48;21.10;99.90
13711;DHT22;6927;51.256;9.410;2022-09-09T13:26:40;21.10;99.90
13711;DHT22;6927;51.256;9.410;2022-09-09T13:29:21;21.10;99.90
13711;DHT22;6927;51.256;9.410;2022-09-09T13:32:06;20.90;99.90
13711;DHT22;6927;51.256;9.410;2022-09-09T13:42:30;21.30;99.90
13711;DHT22;6927;51.256;9.410;2022-09-09T13:44:58;21.40;99.90
13711;DHT22;6927;51.256;9.410;2022-09-09T13:47:35;22.50;99.90
13711;DHT22;6927;51.256;9.410;2022-09-09T13:50:26;23.40;99.90
13711;DHT22;6927;51.256;9.410;2022-09-09T13:53:08;24.30;99.90
13711;DHT22;6927;51.256;9.410;2022-09-09T13:55:36;24.10;99.90
13711;DHT22;6927;51.256;9.410;2022-09-09T13:58:05;23.70;99.90
13711;DHT22;6927;51.256;9.410;2022-09-09T14:00:44;23.60;99.90
13711;DHT22;6927;51.256;9.410;2022-09-09T14:03:10;23.50;99.90
13711;DHT22;6927;51.256;9.410;2022-09-09T14:05:36;22.80;99.90
13711;DHT22;6927;51.256;9.410;2022-09-09T14:08:04;22.30;99.90
13711;DHT22;6927;51.256;9.410;2022-09-09T14:10:34;22.00;99.90
13711;DHT22;6927;51.256;9.410;2022-09-09T14:13:11;21.80;99.90
13711;DHT22;6927;51.256;9.410;2022-09-09T14:15:41;21.70;99.90
13711;DHT22;6927;51.256;9.410;2022-09-09T14:21:53;21.80;99.90
13711;DHT22;6927;51.256;9.410;2022-09-09T14:24:19;21.60;99.90
13711;DHT22;6927;51.256;9.410;2022-09-09T14:26:52;21.40;99.90
13711;DHT22;6927;51.256;9.410;2022-09-09T14:29:21;21.50;99.90
13711;DHT22;6927;51.256;9.410;2022-09-09T14:31:57;22.30;99.90
13711;DHT22;6927;51.256;9.410;2022-09-09T14:34:22;23.20;99.90
13711;DHT22;6927;51.256;9.410;2022-09-09T14:36:48;23.80;99.90
13711;DHT22;6927;51.256;9.410;2022-09-09T14:39:14;23.40;99.90
13711;DHT22;6927;51.256;9.410;2022-09-09T14:41:58;22.80;99.90
13711;DHT22;6927;51.256;9.410;2022-09-09T14:44:24;23.30;99.90
13711;DHT22;6927;51.256;9.410;2022-09-09T14:47:05;24.50;99.90
13711;DHT22;6927;51.256;9.410;2022-09-09T14:49:35;25.40;99.90
13711;DHT22;6927;51.256;9.410;2022-09-09T14:52:17;25.80;99.90
13711;DHT22;6927;51.256;9.410;2022-09-09T14:54:45;26.10;99.90
13711;DHT22;6927;51.256;9.410;2022-09-09T14:57:36;26.40;99.90
13711;DHT22;6927;51.256;9.410;2022-09-09T15:00:06;26.30;99.90
13711;DHT22;6927;51.256;9.410;2022-09-09T15:02:32;27.10;99.90
13711;DHT22;6927;51.256;9.410;2022-09-09T15:04:58;27.40;99.90
13711;DHT22;6927;51.256;9.410;2022-09-09T15:07:25;26.40;99.90
13711;DHT22;6927;51.256;9.410;2022-09-09T15:09:50;25.00;99.90
13711;DHT22;6927;51.256;9.410;2022-09-09T15:12:18;23.90;99.90
13711;DHT22;6927;51.256;9.410;2022-09-09T15:14:46;22.80;99.90
13711;DHT22;6927;51.256;9.410;2022-09-09T15:17:22;22.00;99.90
13711;DHT22;6927;51.256;9.410;2022-09-09T15:19:53;21.40;99.90
13711;DHT22;6927;51.256;9.410;2022-09-09T15:22:20;21.70;99.90
13711;DHT22;6927;51.256;9.410;2022-09-09T15:24:46;22.70;99.90
13711;DHT22;6927;51.256;9.410;2022-09-09T15:27:12;23.60;99.90
13711;DHT22;6927;51.256;9.410;2022-09-09T15:29:49;24.40;99.90
13711;DHT22;6927;51.256;9.410;2022-09-09T15:32:21;25.50;99.90
13711;DHT22;6927;51.256;9.410;2022-09-09T15:34:49;25.30;99.90
13711;DHT22;6927;51.256;9.410;2022-09-09T15:37:18;25.20;99.90
13711;DHT22;6927;51.256;9.410;2022-09-09T15:39:46;25.20;99.90
13711;DHT22;6927;51.256;9.410;2022-09-09T15:42:14;25.30;99.90
13711;DHT22;6927;51.256;9.410;2022-09-09T15:44:45;24.50;99.90
13711;DHT22;6927;51.256;9.410;2022-09-09T15:47:12;23.50;99.90
13711;DHT22;6927;51.256;9.410;2022-09-09T15:49:41;23.10;99.90
13711;DHT22;6927;51.256;9.410;2022-09-09T15:52:10;23.30;99.90
13711;DHT22;6927;51.256;9.410;2022-09-09T15:54:39;23.70;99.90
13711;DHT22;6927;51.256;9.410;2022-09-09T15:57:11;23.90;99.90
13711;DHT22;6927;51.256;9.410;2022-09-09T15:59:40;23.90;99.90
13711;DHT22;6927;51.256;9.410;2022-09-09T16:02:06;24.10;99.90
13711;DHT22;6927;51.256;9.410;2022-09-09T16:04:35;24.20;99.90
13711;DHT22;6927;51.256;9.410;2022-09-09T16:07:05;24.20;99.90
13711;DHT22;6927;51.256;9.410;2022-09-09T16:09:40;24.00;99.90
13711;DHT22;6927;51.256;9.410;2022-09-09T16:12:05;23.90;99.90
13711;DHT22;6927;51.256;9.410;2022-09-09T16:14:32;23.60;99.90
13711;DHT22;6927;51.256;9.410;2022-09-09T16:17:04;23.20;99.90
13711;DHT22;6927;51.256;9.410;2022-09-09T16:19:30;23.20;99.90
13711;DHT22;6927;51.256;9.410;2022-09-09T16:21:56;23.20;99.90
13711;DHT22;6927;51.256;9.410;2022-09-09T16:24:22;23.00;99.90
13711;DHT22;6927;51.256;9.410;2022-09-09T16:26:51;22.90;99.90
13711;DHT22;6927;51.256;9.410;2022-09-09T16:29:18;22.70;99.90
13711;DHT22;6927;51.256;9.410;2022-09-09T16:31:45;22.40;99.90
13711;DHT22;6927;51.256;9.410;2022-09-09T16:34:12;22.00;99.90
13711;DHT22;6927;51.256;9.410;2022-09-09T16:36:41;21.50;99.90
13711;DHT22;6927;51.256;9.410;2022-09-09T16:39:15;21.30;99.90
13711;DHT22;6927;51.256;9.410;2022-09-09T16:41:42;21.10;99.90
13711;DHT22;6927;51.256;9.410;2022-09-09T16:44:10;20.80;99.90
13711;DHT22;6927;51.256;9.410;2022-09-09T16:46:41;20.60;99.90
13711;DHT22;6927;51.256;9.410;2022-09-09T16:49:09;20.40;99.90
13711;DHT22;6927;51.256;9.410;2022-09-09T16:51:39;20.30;99.90
13711;DHT22;6927;51.256;9.410;2022-09-09T16:54:07;20.20;99.90
13711;DHT22;6927;51.256;9.410;2022-09-09T16:56:36;20.00;99.90
13711;DHT22;6927;51.256;9.410;2022-09-09T16:59:25;19.90;99.90
13711;DHT22;6927;51.256;9.410;2022-09-09T17:06:45;19.50;99.90
13711;DHT22;6927;51.256;9.410;2022-09-09T17:10:01;19.20;99.90
13711;DHT22;6927;51.256;9.410;2022-09-09T17:16:46;18.90;99.90
13711;DHT22;6927;51.256;9.410;2022-09-09T17:22:11;18.80;99.90
13711;DHT22;6927;51.256;9.410;2022-09-09T17:24:40;18.80;99.90
13711;DHT22;6927;51.256;9.410;2022-09-09T17:27:12;18.80;99.90
13711;DHT22;6927;51.256;9.410;2022-09-09T17:29:46;18.80;99.90
13711;DHT22;6927;51.256;9.410;2022-09-09T17:32:12;18.60;99.90
13711;DHT22;6927;51.256;9.410;2022-09-09T17:34:41;18.60;99.90
13711;DHT22;6927;51.256;9.410;2022-09-09T17:37:07;18.60;99.90
13711;DHT22;6927;51.256;9.410;2022-09-09T17:39:33;18.60;99.90
13711;DHT22;6927;51.256;9.410;2022-09-09T17:42:02;18.50;99.90
13711;DHT22;6927;51.256;9.410;2022-09-09T17:44:28;18.50;99.90
13711;DHT22;6927;51.256;9.410;2022-09-09T17:46:57;18.50;99.90
13711;DHT22;6927;51.256;9.410;2022-09-09T17:49:22;18.50;99.90
13711;DHT22;6927;51.256;9.410;2022-09-09T17:51:48;18.40;99.90
13711;DHT22;6927;51.256;9.410;2022-09-09T17:54:20;18.40;99.90
13711;DHT22;6927;51.256;9.410;2022-09-09T17:56:55;18.30;99.90
13711;DHT22;6927;51.256;9.410;2022-09-09T17:59:27;18.20;99.90
13711;DHT22;6927;51.256;9.410;2022-09-09T18:01:53;18.30;99.90
13711;DHT22;6927;51.256;9.410;2022-09-09T18:04:19;18.20;99.90
13711;DHT22;6927;51.256;9.410;2022-09-09T18:13:58;18.10;99.90
13711;DHT22;6927;51.256;9.410;2022-09-09T18:16:54;18.00;99.90
13711;DHT22;6927;51.256;9.410;2022-09-09T18:19:30;17.90;99.90
13711;DHT22;6927;51.256;9.410;2022-09-09T18:22:21;17.80;99.90
13711;DHT22;6927;51.256;9.410;2022-09-09T18:24:55;17.70;99.90
13711;DHT22;6927;51.256;9.410;2022-09-09T18:27:22;17.60;99.90
13711;DHT22;6927;51.256;9.410;2022-09-09T18:29:47;17.60;99.90
13711;DHT22;6927;51.256;9.410;2022-09-09T18:32:13;17.50;99.90
13711;DHT22;6927;51.256;9.410;2022-09-09T18:34:39;17.50;99.90
13711;DHT22;6927;51.256;9.410;2022-09-09T18:37:05;17.40;99.90
13711;DHT22;6927;51.256;9.410;2022-09-09T18:39:32;17.40;99.90
13711;DHT22;6927;51.256;9.410;2022-09-09T18:41:59;17.30;99.90
13711;DHT22;6927;51.256;9.410;2022-09-09T18:44:31;17.30;99.90
13711;DHT22;6927;51.256;9.410;2022-09-09T18:46:58;17.20;99.90
13711;DHT22;6927;51.256;9.410;2022-09-09T18:49:24;17.20;99.90